Time;durP1;ratioP1;P1;durP2;ratioP2;P2;SDS_P1;SDS_P2;PMS_P1;PMS_P2;Temp;Humidity;BMP_temperature;BMP_pressure;BME280_temperature;BME280_humidity;BME280_pressure;Samples;Min_cycle;Max_cycle;Signal;HPM_P1;HPM_P2
2023/07/16 00:00:39;;;;;;;6.88;5.75;;;;;;;-141.84;77.45;21659.66;4999424;28;20308;-62
2023/07/16 00:03:08;;;;;;;8.13;5.72;;;;;;;-141.84;76.86;21688.13;5023216;28;20209;-61
2023/07/16 00:05:38;;;;;;;6.63;5.72;;;;;;;-141.84;77.18;21688.13;5023709;28;20319;-61
2023/07/16 00:08:07;;;;;;;6.32;4.60;;;;;;;-141.84;75.13;21712.53;5022818;28;20756;-62
2023/07/16 00:10:38;;;;;;;6.50;4.38;;;;;;;-141.84;74.74;21684.06;5015170;28;20561;-60
2023/07/16 00:13:06;;;;;;;5.05;4.55;;;;;;;-141.84;74.19;21708.47;5022536;28;20325;-61
2023/07/16 00:15:35;;;;;;;4.75;3.85;;;;;;;-141.84;73.20;21730.81;5022822;28;20705;-61
2023/07/16 00:18:05;;;;;;;7.28;4.57;;;;;;;-141.84;75.67;21669.81;5022971;28;20208;-61
2023/07/16 00:20:34;;;;;;;4.05;3.65;;;;;;;-141.84;78.86;21574.25;5015316;28;20244;-61
2023/07/16 00:23:02;;;;;;;6.32;4.13;;;;;;;-141.84;80.92;21482.75;5023105;28;20280;-61
2023/07/16 00:25:31;;;;;;;4.50;3.53;;;;;;;-141.84;81.60;21468.53;5021755;28;20225;-62
2023/07/16 00:28:01;;;;;;;6.93;3.70;;;;;;;-141.84;83.03;21436.00;5022557;28;20766;-61
2023/07/16 00:30:29;;;;;;;4.47;3.55;;;;;;;-141.84;83.87;21423.81;5015440;28;20309;-62
2023/07/16 00:32:58;;;;;;;4.00;3.60;;;;;;;-141.84;84.54;21397.38;5023338;28;20233;-61
2023/07/16 00:35:26;;;;;;;8.02;4.13;;;;;;;-141.84;85.10;21352.63;5022433;28;20304;-61
2023/07/16 00:37:55;;;;;;;7.07;4.18;;;;;;;-141.84;87.08;21285.53;5022351;28;20225;-61
2023/07/16 00:40:23;;;;;;;6.07;3.97;;;;;;;-141.84;88.24;21269.28;5022155;28;20237;-61
2023/07/16 00:42:52;;;;;;;4.38;3.63;;;;;;;-141.84;88.63;21287.56;5018097;28;20588;-62
2023/07/16 00:45:22;;;;;;;6.07;4.25;;;;;;;-141.84;88.86;21285.53;5022749;28;20752;-61
2023/07/16 00:47:51;;;;;;;5.47;3.85;;;;;;;-141.84;89.57;21279.44;5023004;28;20308;-61
2023/07/16 00:50:20;;;;;;;5.82;3.97;;;;;;;-141.84;89.26;21289.59;5022403;28;20718;-61
2023/07/16 00:52:49;;;;;;;6.50;3.85;;;;;;;-141.84;89.90;21283.50;5014225;28;20317;-61
2023/07/16 00:55:17;;;;;;;4.78;4.07;;;;;;;-141.84;89.94;21305.88;5021558;28;20313;-61
2023/07/16 00:57:47;;;;;;;4.57;3.88;;;;;;;-141.84;90.48;21257.09;5022496;28;20275;-62
2023/07/16 01:00:16;;;;;;;5.72;4.45;;;;;;;-141.84;90.96;21269.28;5022189;28;20256;-61
2023/07/16 01:02:46;;;;;;;5.03;4.20;;;;;;;-141.84;91.09;21285.53;5015044;28;20332;-61
2023/07/16 01:05:15;;;;;;;6.50;3.80;;;;;;;-141.84;91.35;21295.72;5022284;28;20724;-61
2023/07/16 01:07:51;;;;;;;6.03;4.00;;;;;;;-141.84;91.13;21289.59;5021981;28;20249;-61
2023/07/16 01:10:21;;;;;;;5.40;4.20;;;;;;;-141.84;91.48;21257.09;5022039;28;20229;-61
2023/07/16 01:12:50;;;;;;;4.80;3.70;;;;;;;-141.84;91.93;21279.44;5013508;28;20804;-62
2023/07/16 01:15:19;;;;;;;4.47;3.90;;;;;;;-141.84;92.36;21232.69;5022394;28;20543;-59
2023/07/16 01:17:48;;;;;;;4.05;3.55;;;;;;;-141.84;92.85;21185.91;5022818;28;20333;-61
2023/07/16 01:20:17;;;;;;;4.30;3.90;;;;;;;-141.84;92.56;21218.44;5022265;28;20735;-63
2023/07/16 01:23:07;;;;;;;5.35;4.10;;;;;;;-141.84;92.67;21224.56;5014656;28;20257;-61
2023/07/16 01:26:02;;;;;;;4.93;3.75;;;;;;;-141.84;92.95;21220.47;5021621;28;20225;-62
2023/07/16 01:29:18;;;;;;;5.30;4.20;;;;;;;-141.84;92.71;21263.19;5004571;28;20812;-61
2023/07/16 01:31:50;;;;;;;4.63;4.10;;;;;;;-141.84;92.97;21240.81;4961004;28;20347;-62
2023/07/16 01:34:20;;;;;;;7.22;4.43;;;;;;;-141.84;92.60;21230.66;5016964;28;20232;-62
2023/07/16 01:36:50;;;;;;;6.22;4.32;;;;;;;-141.84;92.74;21179.81;5014004;28;20261;-61
2023/07/16 01:39:19;;;;;;;5.22;3.88;;;;;;;-141.84;93.35;21173.72;5021487;28;20645;-61
2023/07/16 01:41:47;;;;;;;4.50;3.78;;;;;;;-141.84;93.32;21196.09;5021679;28;20305;-61
2023/07/16 01:44:17;;;;;;;5.03;4.03;;;;;;;-141.84;93.11;21214.38;5022081;28;20240;-61
2023/07/16 01:46:48;;;;;;;5.22;3.90;;;;;;;-141.84;92.40;21200.16;5014474;28;20261;-61
2023/07/16 01:49:16;;;;;;;6.70;4.30;;;;;;;-141.84;92.24;21183.88;5020459;28;20265;-61
2023/07/16 01:51:44;;;;;;;3.90;3.60;;;;;;;-141.84;92.20;21222.53;5006240;28;20369;-62
2023/07/16 01:54:13;;;;;;;6.10;4.05;;;;;;;-141.84;92.24;21206.25;5018814;28;20264;-61
2023/07/16 01:56:41;;;;;;;5.47;3.92;;;;;;;-141.84;92.33;21210.31;5018623;28;20293;-61
2023/07/16 01:59:10;;;;;;;5.28;3.65;;;;;;;-141.84;92.52;21196.09;5025383;28;20321;-61
2023/07/16 02:01:39;;;;;;;5.45;4.30;;;;;;;-141.84;89.91;21250.97;5025766;28;20240;-62
2023/07/16 02:04:08;;;;;;;4.18;3.78;;;;;;;-141.84;90.22;21236.75;5025186;28;20321;-61
2023/07/16 02:06:36;;;;;;;4.03;3.63;;;;;;;-141.84;90.45;21234.72;5017718;28;20253;-61
2023/07/16 02:09:05;;;;;;;4.45;3.72;;;;;;;-141.84;90.01;21230.66;5025235;28;20222;-61
2023/07/16 02:11:33;;;;;;;4.88;3.38;;;;;;;-141.84;89.13;21236.75;5021928;28;20207;-61
2023/07/16 02:14:02;;;;;;;4.25;3.42;;;;;;;-141.84;86.73;21261.16;5006769;28;20272;-61
2023/07/16 02:16:30;;;;;;;5.30;3.90;;;;;;;-141.84;87.56;21279.44;5017624;28;20226;-61
2023/07/16 02:19:00;;;;;;;4.50;3.45;;;;;;;-141.84;88.51;21253.00;5025328;28;20234;-62
2023/07/16 02:21:29;;;;;;;5.00;3.53;;;;;;;-141.84;87.08;21265.22;5024930;28;20297;-62
2023/07/16 02:23:57;;;;;;;5.50;3.35;;;;;;;-141.84;86.65;21253.00;5024974;28;20250;-61
2023/07/16 02:26:26;;;;;;;4.03;3.58;;;;;;;-141.84;86.89;21297.75;5022448;28;20305;-61
2023/07/16 02:28:54;;;;;;;4.45;4.03;;;;;;;-141.84;86.54;21240.81;5022249;28;20317;-61
2023/07/16 02:31:23;;;;;;;4.45;4.05;;;;;;;-141.84;87.30;21259.13;5025279;28;20229;-62
2023/07/16 02:33:51;;;;;;;6.50;4.38;;;;;;;-141.84;87.18;21257.09;5025444;28;20226;-61
2023/07/16 02:36:21;;;;;;;4.38;3.97;;;;;;;-141.84;88.01;21277.41;5024953;28;20297;-62
2023/07/16 02:38:50;;;;;;;4.93;4.35;;;;;;;-141.84;86.80;21299.78;5018607;28;20296;-61
2023/07/16 02:41:18;;;;;;;5.03;4.47;;;;;;;-141.84;86.90;21250.97;5023881;28;20230;-61
2023/07/16 02:43:47;;;;;;;5.00;4.55;;;;;;;-141.84;87.01;21305.88;5025012;28;20283;-60
2023/07/16 02:46:15;;;;;;;4.90;4.47;;;;;;;-141.84;86.89;21297.75;5015604;28;20338;-61
2023/07/16 02:48:44;;;;;;;6.10;4.70;;;;;;;-141.84;86.44;21309.94;4997235;28;20788;-62
2023/07/16 02:51:13;;;;;;;6.47;4.65;;;;;;;-141.84;86.64;21299.78;5004726;28;20289;-62
2023/07/16 02:53:43;;;;;;;5.22;4.72;;;;;;;-141.84;85.87;21289.59;5011302;28;20362;-62
2023/07/16 02:56:11;;;;;;;4.95;4.30;;;;;;;-141.84;85.97;21291.66;5013360;28;20767;-62
2023/07/16 02:58:40;;;;;;;5.63;4.60;;;;;;;-141.84;86.53;21240.81;4996768;28;20277;-62
2023/07/16 03:01:08;;;;;;;4.85;4.30;;;;;;;-141.84;86.48;21246.91;5012475;28;20265;-61
2023/07/16 03:03:37;;;;;;;5.10;4.60;;;;;;;-141.84;86.18;21291.66;5024579;28;20221;-61
2023/07/16 03:06:05;;;;;;;5.18;4.05;;;;;;;-141.84;86.43;21275.38;5024029;28;20210;-62
2023/07/16 03:08:34;;;;;;;5.45;4.20;;;;;;;-141.84;85.24;21265.22;5015898;28;20206;-63
2023/07/16 03:11:04;;;;;;;5.55;4.00;;;;;;;-141.84;83.96;21322.13;5024088;28;20582;-61
2023/07/16 03:13:33;;;;;;;4.38;3.97;;;;;;;-141.84;84.13;21332.31;5004616;28;20235;-61
2023/07/16 03:16:01;;;;;;;4.90;4.13;;;;;;;-141.84;83.23;21330.28;5022080;28;20229;-61
2023/07/16 03:18:30;;;;;;;4.38;3.83;;;;;;;-141.84;83.30;21348.56;5016611;28;20284;-61
2023/07/16 03:20:59;;;;;;;4.75;3.78;;;;;;;-141.84;84.41;21283.50;5024803;28;20289;-62
2023/07/16 03:23:28;;;;;;;4.32;3.92;;;;;;;-141.84;83.39;21295.72;5023784;28;20620;-60
2023/07/16 03:25:56;;;;;;;4.47;4.07;;;;;;;-141.84;83.61;21281.47;5023633;28;20317;-62
2023/07/16 03:28:26;;;;;;;5.15;3.88;;;;;;;-141.84;83.89;21336.38;5021848;28;20336;-60
2023/07/16 03:30:54;;;;;;;5.75;4.53;;;;;;;-141.84;83.01;21340.44;5024008;28;20265;-61
2023/07/16 03:33:23;;;;;;;4.07;3.65;;;;;;;-141.84;83.34;21324.19;5024064;28;20226;-62
2023/07/16 03:35:52;;;;;;;3.90;3.53;;;;;;;-141.84;83.63;21314.00;5024164;28;20236;-62
2023/07/16 03:38:20;;;;;;;8.82;3.88;;;;;;;-141.84;84.69;21277.41;5023657;28;20253;-61
2023/07/16 03:40:50;;;;;;;4.15;3.85;;;;;;;-141.84;84.99;21255.03;5016131;28;20248;-61
2023/07/16 03:43:19;;;;;;;4.38;3.97;;;;;;;-141.84;84.56;21277.41;5023172;28;20238;-61
2023/07/16 03:45:49;;;;;;;4.38;3.97;;;;;;;-141.84;83.29;21328.25;5023810;28;20249;-61
2023/07/16 03:48:18;;;;;;;5.65;4.45;;;;;;;-141.84;83.62;21307.91;5023529;28;20242;-62
2023/07/16 03:50:48;;;;;;;6.18;4.13;;;;;;;-141.84;83.00;21350.59;5015681;28;23988;-62
2023/07/16 03:53:17;;;;;;;5.82;3.80;;;;;;;-141.84;84.00;21291.66;5023042;28;20672;-62
2023/07/16 03:55:45;;;;;;;5.10;3.90;;;;;;;-141.84;84.55;21279.44;5003824;28;20273;-60
2023/07/16 03:58:14;;;;;;;4.35;4.00;;;;;;;-141.84;84.66;21244.88;5003768;28;20329;-62
2023/07/16 04:00:43;;;;;;;4.68;4.10;;;;;;;-141.84;84.03;21309.94;5000389;28;20301;-61
2023/07/16 04:03:13;;;;;;;4.57;3.80;;;;;;;-141.84;82.96;21318.06;5023568;28;20267;-60
2023/07/16 04:05:42;;;;;;;4.65;4.13;;;;;;;-141.84;83.25;21309.94;5024358;28;20206;-60
2023/07/16 04:08:11;;;;;;;4.25;3.85;;;;;;;-141.84;83.15;21289.59;5022371;28;20218;-60
2023/07/16 04:10:39;;;;;;;5.88;4.25;;;;;;;-141.84;84.52;21267.25;5014817;28;20262;-61
2023/07/16 04:13:08;;;;;;;4.60;3.50;;;;;;;-141.84;82.96;21301.81;5005895;28;20296;-62
2023/07/16 04:15:36;;;;;;;4.95;3.35;;;;;;;-141.84;82.48;21309.94;5017803;28;20222;-61
2023/07/16 04:18:05;;;;;;;4.32;3.80;;;;;;;-141.84;84.03;21267.25;5022930;28;20297;-61
2023/07/16 04:20:35;;;;;;;5.30;3.85;;;;;;;-141.84;83.44;21305.88;5015472;28;20240;-61
2023/07/16 04:23:03;;;;;;;3.95;3.55;;;;;;;-141.84;82.15;21342.47;5021926;28;20325;-60
2023/07/16 04:25:32;;;;;;;4.57;3.95;;;;;;;-141.84;81.28;21366.88;5023045;28;20775;-60
2023/07/16 04:28:03;;;;;;;4.05;3.47;;;;;;;-141.84;80.32;21419.72;5023096;28;20253;-61
2023/07/16 04:30:32;;;;;;;4.90;3.95;;;;;;;-141.84;78.87;21474.63;5015590;28;20234;-62
2023/07/16 04:33:00;;;;;;;3.78;3.47;;;;;;;-141.84;78.22;21517.31;5023348;28;20202;-64
2023/07/16 04:35:29;;;;;;;3.70;3.40;;;;;;;-141.84;78.99;21501.06;5023088;28;20206;-61
2023/07/16 04:37:59;;;;;;;4.40;3.60;;;;;;;-141.84;79.49;21486.81;5019776;28;20222;-61
2023/07/16 04:40:28;;;;;;;4.72;3.40;;;;;;;-141.84;79.70;21488.88;4995214;28;20233;-62
2023/07/16 04:42:56;;;;;;;3.38;3.08;;;;;;;-141.84;77.59;21497.00;5002684;28;20231;-61
2023/07/16 04:45:25;;;;;;;5.53;3.47;;;;;;;-141.84;77.37;21478.69;5003011;28;20301;-62
2023/07/16 04:47:53;;;;;;;5.72;3.60;;;;;;;-141.84;77.18;21549.84;5003881;28;20302;-61
2023/07/16 04:50:22;;;;;;;4.40;3.00;;;;;;;-141.84;76.48;21529.53;5002707;28;20231;-62
2023/07/16 04:52:50;;;;;;;3.53;2.95;;;;;;;-141.84;75.08;21604.75;4998803;28;20610;-60
2023/07/16 04:55:20;;;;;;;4.50;3.05;;;;;;;-141.84;75.17;21604.75;5022397;28;20529;-60
2023/07/16 04:57:49;;;;;;;7.97;3.20;;;;;;;-141.84;74.37;21647.47;5022171;28;20253;-62
2023/07/16 05:00:17;;;;;;;4.55;3.00;;;;;;;-141.84;75.15;21647.47;5021234;28;20198;-61
2023/07/16 05:02:46;;;;;;;3.17;2.72;;;;;;;-141.84;74.40;21649.50;5014049;28;20478;-61
2023/07/16 05:05:14;;;;;;;5.18;2.75;;;;;;;-141.84;76.05;21625.09;5022033;28;20234;-62
2023/07/16 05:07:43;;;;;;;4.82;3.13;;;;;;;-141.84;73.83;21673.88;5021896;28;20312;-61
2023/07/16 05:10:12;;;;;;;4.70;2.95;;;;;;;-141.84;73.45;21732.84;5022198;28;20317;-60
2023/07/16 05:12:42;;;;;;;3.28;2.63;;;;;;;-141.84;71.54;21797.94;5012342;28;20932;-61
2023/07/16 05:15:11;;;;;;;3.95;2.72;;;;;;;-141.84;71.67;21887.41;5022696;28;20241;-62
2023/07/16 05:17:40;;;;;;;3.58;2.78;;;;;;;-141.84;68.92;21976.88;5022407;28;20202;-62
2023/07/16 05:20:09;;;;;;;3.08;2.60;;;;;;;-141.84;69.80;21917.91;5022202;28;20229;-61
2023/07/16 05:22:38;;;;;;;4.20;2.67;;;;;;;-141.84;68.57;21972.81;5015494;28;20342;-61
2023/07/16 05:25:07;;;;;;;5.43;2.50;;;;;;;-141.84;65.00;22224.97;5025209;28;20730;-61
2023/07/16 05:27:36;;;;;;;4.05;2.63;;;;;;;-141.84;63.29;22389.69;5026366;28;20249;-61
2023/07/16 05:30:07;;;;;;;2.97;2.40;;;;;;;-141.84;62.47;22430.38;5026002;28;20264;-61
2023/07/16 05:32:37;;;;;;;4.30;2.67;;;;;;;-141.84;64.24;22255.47;5019093;28;20320;-62
2023/07/16 05:35:06;;;;;;;5.05;2.58;;;;;;;-141.84;65.33;22155.81;5025626;28;20234;-62
2023/07/16 05:37:35;;;;;;;3.25;2.42;;;;;;;-141.84;65.98;22102.94;5026221;28;20717;-62
2023/07/16 05:40:04;;;;;;;2.33;2.10;;;;;;;-141.84;66.43;22092.78;5025989;28;20308;-61
2023/07/16 05:42:32;;;;;;;4.90;2.20;;;;;;;-141.84;65.45;22137.50;5018160;28;20306;-62
2023/07/16 05:45:01;;;;;;;2.33;2.13;;;;;;;-141.84;65.69;22127.34;5026186;28;20280;-63
2023/07/16 05:47:31;;;;;;;4.55;2.28;;;;;;;-141.84;66.30;22005.34;5026379;28;20214;-60
2023/07/16 05:49:59;;;;;;;2.35;2.15;;;;;;;-141.84;65.87;21958.56;5025092;28;20721;-63
2023/07/16 05:52:28;;;;;;;3.83;2.17;;;;;;;-141.84;67.42;21865.03;5017602;28;20775;-61
2023/07/16 05:54:56;;;;;;;2.60;2.08;;;;;;;-141.84;68.92;21816.22;5024622;28;20234;-61
2023/07/16 05:57:25;;;;;;;3.63;2.30;;;;;;;-141.84;67.46;21928.06;5026541;28;20304;-61
2023/07/16 05:59:54;;;;;;;2.10;1.92;;;;;;;-141.84;65.35;21982.97;5025485;28;20238;-62
2023/07/16 06:02:24;;;;;;;1.92;1.83;;;;;;;-141.84;65.44;22050.06;5026233;28;20226;-61
2023/07/16 06:04:54;;;;;;;2.55;2.20;;;;;;;-141.84;64.32;22058.22;5021879;28;20253;-60
2023/07/16 06:07:22;;;;;;;2.25;2.05;;;;;;;-141.84;64.08;22094.81;5025427;28;20261;-62
2023/07/16 06:09:51;;;;;;;3.55;2.05;;;;;;;-141.84;63.37;22131.41;5025472;28;20645;-61
2023/07/16 06:12:20;;;;;;;3.47;1.90;;;;;;;-141.84;62.62;22123.28;5025573;28;20633;-61
2023/07/16 06:14:48;;;;;;;3.33;2.10;;;;;;;-141.84;62.80;22121.25;5017924;28;20248;-61
2023/07/16 06:17:17;;;;;;;3.53;1.95;;;;;;;-141.84;62.84;22092.78;5025448;28;20257;-62
2023/07/16 06:19:45;;;;;;;2.38;2.17;;;;;;;-141.84;62.63;22048.03;5024357;28;20748;-61
2023/07/16 06:22:15;;;;;;;2.58;1.80;;;;;;;-141.84;62.03;22174.13;5025118;28;20317;-63
2023/07/16 06:24:43;;;;;;;3.15;1.90;;;;;;;-141.84;60.35;22168.03;5016497;28;20264;-61
2023/07/16 06:27:12;;;;;;;2.60;1.98;;;;;;;-141.84;61.81;22161.91;5025067;28;20220;-61
2023/07/16 06:29:41;;;;;;;2.58;1.92;;;;;;;-141.84;61.17;22233.09;5025982;28;20260;-61
2023/07/16 06:32:10;;;;;;;5.95;2.25;;;;;;;-141.84;60.49;22212.75;5025185;28;20233;-62
2023/07/16 06:34:38;;;;;;;3.05;2.17;;;;;;;-141.84;60.96;22184.28;5010306;28;20227;-62
2023/07/16 06:37:07;;;;;;;2.50;2.20;;;;;;;-141.84;61.00;22166.00;5005151;28;20321;-61
2023/07/16 06:39:37;;;;;;;2.67;1.90;;;;;;;-141.84;60.51;22208.69;5004938;28;20590;-61
2023/07/16 06:42:06;;;;;;;3.35;1.80;;;;;;;-141.84;59.52;22304.28;5004885;28;20310;-61
2023/07/16 06:44:35;;;;;;;3.15;2.00;;;;;;;-141.84;58.58;22312.41;4998218;28;20201;-60
2023/07/16 06:47:03;;;;;;;2.72;1.90;;;;;;;-141.84;59.17;22316.47;5005496;28;20317;-63
2023/07/16 06:49:32;;;;;;;3.88;2.30;;;;;;;-141.84;58.25;22336.81;5004455;28;20722;-62
2023/07/16 06:52:02;;;;;;;5.18;1.98;;;;;;;-141.84;58.21;22314.44;5004847;28;20781;-61
2023/07/16 06:54:30;;;;;;;4.18;2.30;;;;;;;-141.84;58.16;22314.44;5008238;28;20256;-62
2023/07/16 06:57:00;;;;;;;3.38;2.00;;;;;;;-141.84;57.10;22279.88;5025435;28;20268;-60
2023/07/16 06:59:29;;;;;;;3.88;1.63;;;;;;;-141.84;56.65;22310.38;5025331;28;20283;-61
2023/07/16 07:01:57;;;;;;;4.07;1.95;;;;;;;-141.84;56.93;22271.72;5024174;28;20253;-62
2023/07/16 07:04:26;;;;;;;4.85;2.47;;;;;;;-141.84;56.54;22285.97;5020981;28;20265;-62
2023/07/16 07:06:55;;;;;;;2.45;1.90;;;;;;;-141.84;56.18;22334.78;5021132;28;20661;-61
2023/07/16 07:09:23;;;;;;;4.32;2.08;;;;;;;-141.84;56.44;22330.72;5023914;28;20241;-62
2023/07/16 07:11:51;;;;;;;2.40;2.00;;;;;;;-141.84;56.10;22410.03;5025227;28;20218;-62
2023/07/16 07:14:21;;;;;;;2.58;2.00;;;;;;;-141.84;55.51;22469.00;5023938;28;20316;-61
2023/07/16 07:16:50;;;;;;;4.43;1.95;;;;;;;-141.84;54.92;22475.09;5009689;28;20332;-61
2023/07/16 07:19:18;;;;;;;3.38;2.13;;;;;;;-141.84;54.59;22473.06;5023206;28;20230;-62
2023/07/16 07:21:47;;;;;;;3.78;1.90;;;;;;;-141.84;54.41;22503.56;5025092;28;20405;-61
2023/07/16 07:24:15;;;;;;;4.25;1.95;;;;;;;-141.84;53.65;22538.16;5023592;28;20534;-63
2023/07/16 07:26:44;;;;;;;2.97;1.80;;;;;;;-141.84;52.55;22597.13;5018652;28;20221;-62
2023/07/16 07:29:13;;;;;;;2.55;1.70;;;;;;;-141.84;52.63;22580.84;5024745;28;20316;-61
2023/07/16 07:31:43;;;;;;;2.60;1.90;;;;;;;-141.84;52.39;22552.38;5024157;28;20261;-62
2023/07/16 07:34:11;;;;;;;3.38;1.70;;;;;;;-141.84;51.35;22534.09;5022807;28;20237;-62
2023/07/16 07:36:40;;;;;;;3.00;1.80;;;;;;;-141.84;52.87;22442.56;4998134;28;20250;-61
2023/07/16 07:39:09;;;;;;;2.83;1.83;;;;;;;-141.84;52.17;22452.72;5004437;28;20903;-61
2023/07/16 07:41:38;;;;;;;2.85;1.83;;;;;;;-141.84;52.80;22471.03;5005427;28;20317;-62
2023/07/16 07:44:06;;;;;;;2.40;1.60;;;;;;;-141.84;52.37;22485.28;5005800;28;20265;-61
2023/07/16 07:46:35;;;;;;;3.28;1.50;;;;;;;-141.84;51.74;22440.53;4998518;28;20242;-63
2023/07/16 07:49:05;;;;;;;3.15;1.73;;;;;;;-141.84;52.37;22446.63;5005524;28;20242;-64
2023/07/16 07:51:33;;;;;;;4.07;2.25;;;;;;;-141.84;53.61;22464.94;5005583;28;20265;-62
2023/07/16 07:54:02;;;;;;;3.65;2.10;;;;;;;-141.84;52.98;22473.06;5016254;28;20235;-63
2023/07/16 07:56:31;;;;;;;3.60;2.10;;;;;;;-141.84;51.81;22534.09;5018724;28;20264;-63
2023/07/16 07:58:59;;;;;;;3.60;1.80;;;;;;;-141.84;50.02;22572.72;5025206;28;20655;-62
2023/07/16 08:01:29;;;;;;;3.47;1.88;;;;;;;-141.84;50.15;22580.84;5024621;28;20229;-61
2023/07/16 08:03:58;;;;;;;2.63;1.65;;;;;;;-141.84;50.41;22554.41;5025367;28;20291;-63
2023/07/16 08:06:28;;;;;;;3.13;1.83;;;;;;;-141.84;49.33;22566.63;5022219;28;20226;-64
2023/07/16 08:08:56;;;;;;;3.55;1.92;;;;;;;-141.84;50.01;22542.22;5025423;28;20241;-62
2023/07/16 08:11:25;;;;;;;2.47;1.58;;;;;;;-141.84;51.03;22523.91;5025011;28;20230;-60
2023/07/16 08:13:53;;;;;;;3.53;1.83;;;;;;;-141.84;49.30;22481.22;5025126;28;20285;-61
2023/07/16 08:16:22;;;;;;;4.32;2.25;;;;;;;-141.84;49.95;22452.72;5024119;28;20740;-61
2023/07/16 08:18:50;;;;;;;3.50;1.80;;;;;;;-141.84;48.91;22477.13;5019981;28;20284;-61
2023/07/16 08:21:19;;;;;;;2.95;1.40;;;;;;;-141.84;48.37;22460.88;5024589;28;20241;-60
2023/07/16 08:23:51;;;;;;;4.50;1.92;;;;;;;-141.84;48.49;22471.03;5024588;28;20218;-61
2023/07/16 08:26:19;;;;;;;6.32;1.70;;;;;;;-141.84;48.95;22450.69;5024575;28;20796;-61
2023/07/16 08:28:48;;;;;;;3.22;1.77;;;;;;;-141.84;47.87;22566.63;5017723;28;20261;-61
2023/07/16 08:31:16;;;;;;;3.80;1.80;;;;;;;-141.84;47.06;22586.97;5024206;28;20629;-61
2023/07/16 08:33:45;;;;;;;4.95;1.70;;;;;;;-141.84;46.56;22591.03;5025172;28;20238;-61
2023/07/16 08:36:13;;;;;;;3.78;1.52;;;;;;;-141.84;45.19;22625.59;5024828;28;20259;-61
2023/07/16 08:38:42;;;;;;;4.63;1.77;;;;;;;-141.84;45.47;22603.22;5018299;28;20209;-61
2023/07/16 08:41:12;;;;;;;4.15;1.80;;;;;;;-141.84;45.78;22656.13;5024410;28;20440;-62
2023/07/16 08:43:42;;;;;;;2.92;1.70;;;;;;;-141.84;45.04;22678.47;5024502;28;20675;-61
2023/07/16 08:46:11;;;;;;;4.45;1.80;;;;;;;-141.84;45.31;22664.25;5024072;28;20226;-62
2023/07/16 08:48:43;;;;;;;2.47;1.45;;;;;;;-141.84;46.07;22650.00;5017826;28;20230;-61
2023/07/16 08:51:14;;;;;;;2.58;1.40;;;;;;;-141.84;46.00;22692.72;5024690;28;20206;-61
2023/07/16 08:53:43;;;;;;;2.67;1.50;;;;;;;-141.84;45.05;22755.78;5020869;28;20321;-62
2023/07/16 08:56:13;;;;;;;2.42;1.75;;;;;;;-141.84;45.67;22778.16;5024621;28;20492;-61
2023/07/16 08:58:44;;;;;;;4.50;1.70;;;;;;;-141.84;45.54;22833.06;5015810;28;20229;-62
2023/07/16 09:01:13;;;;;;;3.25;1.63;;;;;;;-141.84;44.51;22851.38;5023853;28;20234;-61
2023/07/16 09:03:41;;;;;;;3.17;1.70;;;;;;;-141.84;44.13;22835.09;5024265;28;20218;-61
2023/07/16 09:06:10;;;;;;;1.92;1.45;;;;;;;-141.84;43.50;22814.75;5023977;28;20237;-61
2023/07/16 09:08:39;;;;;;;3.85;1.33;;;;;;;-141.84;43.42;22814.75;5017486;28;20214;-62
2023/07/16 09:11:11;;;;;;;3.03;1.60;;;;;;;-141.84;43.89;22816.78;5023859;28;20265;-61
2023/07/16 09:13:45;;;;;;;3.05;1.80;;;;;;;-141.84;42.74;22833.06;5023690;28;20713;-62
2023/07/16 09:16:16;;;;;;;3.58;1.50;;;;;;;-141.84;43.54;22774.06;5023605;28;20317;-60
2023/07/16 09:18:45;;;;;;;2.30;1.50;;;;;;;-141.84;41.87;22853.41;5017239;28;20335;-62
2023/07/16 09:21:14;;;;;;;4.75;1.52;;;;;;;-141.84;40.93;22845.25;5024236;28;20205;-61
2023/07/16 09:23:43;;;;;;;3.17;1.55;;;;;;;-141.84;40.60;22800.50;5020582;28;20206;-61
2023/07/16 09:26:11;;;;;;;3.70;1.63;;;;;;;-141.84;40.43;22800.50;5024053;28;20685;-62
2023/07/16 09:28:41;;;;;;;2.05;1.48;;;;;;;-141.84;40.14;22790.34;5009986;28;20274;-61
2023/07/16 09:31:12;;;;;;;2.55;1.42;;;;;;;-141.84;40.84;22761.88;5023475;28;20288;-63
2023/07/16 09:33:40;;;;;;;3.03;1.77;;;;;;;-141.84;40.99;22826.97;5023871;28;20233;-62
2023/07/16 09:36:09;;;;;;;3.03;1.48;;;;;;;-141.84;41.22;22796.44;5023777;28;20359;-61
2023/07/16 09:38:37;;;;;;;3.35;1.55;;;;;;;-141.84;41.36;22774.06;5016948;28;20666;-62
2023/07/16 09:41:07;;;;;;;3.40;1.60;;;;;;;-141.84;42.33;22767.97;5023315;28;20264;-62
2023/07/16 09:43:37;;;;;;;5.07;1.85;;;;;;;-141.84;41.86;22786.28;5023502;28;20310;-61
2023/07/16 09:46:07;;;;;;;3.00;1.67;;;;;;;-141.84;40.07;22786.28;5023716;28;20253;-61
2023/07/16 09:48:36;;;;;;;3.80;1.60;;;;;;;-141.84;40.64;22774.06;5005944;28;20329;-62
2023/07/16 09:51:08;;;;;;;2.50;1.25;;;;;;;-141.84;40.55;22804.59;5004225;28;20215;-62
2023/07/16 09:53:40;;;;;;;1.63;1.50;;;;;;;-141.84;40.64;22829.00;5011655;28;20257;-61
2023/07/16 09:56:11;;;;;;;2.60;1.50;;;;;;;-141.84;39.47;22798.47;5023581;28;20234;-61
2023/07/16 09:58:40;;;;;;;2.50;1.60;;;;;;;-141.84;39.52;22851.38;5016712;28;20312;-62
2023/07/16 10:01:11;;;;;;;3.45;1.90;;;;;;;-141.84;38.80;22863.56;5023411;28;20324;-62
2023/07/16 10:03:50;;;;;;;3.25;1.83;;;;;;;-141.84;39.57;22808.66;5023572;28;20228;-61
2023/07/16 10:06:19;;;;;;;3.75;1.75;;;;;;;-141.84;41.26;22863.56;5023788;28;20240;-60
2023/07/16 10:08:51;;;;;;;2.45;1.55;;;;;;;-141.84;41.38;22867.63;5016900;28;20297;-61
2023/07/16 10:11:20;;;;;;;2.65;1.75;;;;;;;-141.84;40.21;22853.41;5027312;28;20324;-61
2023/07/16 10:13:51;;;;;;;3.03;1.50;;;;;;;-141.84;40.38;22914.41;5026655;28;20277;-62
2023/07/16 10:16:27;;;;;;;3.00;1.67;;;;;;;-141.84;39.72;22989.69;5026309;28;20233;-62
2023/07/16 10:19:00;;;;;;;3.65;1.63;;;;;;;-141.84;39.03;22938.81;5027024;28;20229;-61
2023/07/16 10:21:29;;;;;;;3.17;1.80;;;;;;;-141.84;39.61;22949.00;5027144;28;20225;-63
2023/07/16 10:24:00;;;;;;;3.10;1.80;;;;;;;-141.84;38.77;22957.13;5021488;28;20709;-61
2023/07/16 10:26:30;;;;;;;4.22;1.90;;;;;;;-141.84;39.08;22963.22;5020086;28;20670;-61
2023/07/16 10:28:58;;;;;;;1.95;1.58;;;;;;;-141.84;39.67;22959.16;5026821;28;20233;-61
2023/07/16 10:31:28;;;;;;;2.90;1.60;;;;;;;-141.84;39.40;23077.13;5026466;28;20238;-62
2023/07/16 10:34:01;;;;;;;2.30;1.63;;;;;;;-141.84;37.39;23075.09;5026919;28;20652;-62
2023/07/16 10:36:30;;;;;;;3.72;1.70;;;;;;;-141.84;37.22;23042.56;5019572;28;20257;-62
2023/07/16 10:39:04;;;;;;;4.15;1.63;;;;;;;-141.84;37.52;22981.53;5026498;28;20214;-61
2023/07/16 10:41:33;;;;;;;4.63;1.90;;;;;;;-141.84;37.12;22910.34;5006941;28;20284;-62
2023/07/16 10:44:02;;;;;;;2.13;1.60;;;;;;;-141.84;38.08;22859.50;5022669;28;20352;-62
2023/07/16 10:46:33;;;;;;;2.17;1.60;;;;;;;-141.84;38.47;22887.97;5018858;28;20230;-61
2023/07/16 10:49:02;;;;;;;3.47;1.55;;;;;;;-141.84;38.21;22963.22;5026278;28;20237;-62
2023/07/16 10:51:31;;;;;;;2.42;1.90;;;;;;;-141.84;38.05;22922.56;5026403;28;20280;-61
2023/07/16 10:53:59;;;;;;;2.35;1.80;;;;;;;-141.84;38.88;22969.34;5026058;28;20713;-61
2023/07/16 10:56:28;;;;;;;2.95;1.70;;;;;;;-141.84;38.27;23042.56;5019892;28;20666;-61
2023/07/16 10:58:56;;;;;;;1.85;1.67;;;;;;;-141.84;38.15;22995.78;5025853;28;20671;-60
2023/07/16 11:01:25;;;;;;;3.65;1.60;;;;;;;-141.84;38.87;23022.22;5025878;28;20241;-61
2023/07/16 11:04:00;;;;;;;2.38;1.67;;;;;;;-141.84;38.80;23020.19;5026301;28;20228;-61
2023/07/16 11:06:29;;;;;;;1.75;1.55;;;;;;;-141.84;38.10;23046.63;5005206;28;20276;-62
2023/07/16 11:09:07;;;;;;;2.60;1.85;;;;;;;-141.84;38.57;23130.03;5024802;28;20608;-61
2023/07/16 11:11:36;;;;;;;3.05;1.58;;;;;;;-141.84;37.96;23125.97;5026117;28;20280;-61
2023/07/16 11:14:05;;;;;;;4.53;1.70;;;;;;;-141.84;37.55;23134.09;5025518;28;20256;-62
2023/07/16 11:16:38;;;;;;;3.28;1.65;;;;;;;-141.84;37.78;23117.81;5018485;28;20274;-62
2023/07/16 11:19:08;;;;;;;3.15;1.90;;;;;;;-141.84;37.38;23172.75;5025721;28;20291;-61
2023/07/16 11:21:37;;;;;;;2.45;1.73;;;;;;;-141.84;37.43;23209.34;5025001;28;20234;-62
2023/07/16 11:24:10;;;;;;;3.85;1.90;;;;;;;-141.84;37.62;23282.59;5023666;28;20213;-61
2023/07/16 11:26:38;;;;;;;3.17;1.80;;;;;;;-141.84;36.75;23207.31;5018840;28;20670;-62